createdAt,value
2023-04-15T00:01:23.951Z,13.63
2023-04-15T00:06:26.521Z,15.60
2023-04-15T00:11:29.069Z,14.90
2023-04-15T00:16:31.528Z,13.17
2023-04-15T00:21:37.098Z,16.07
2023-04-15T00:26:39.867Z,15.40
2023-04-15T00:31:42.411Z,16.60
2023-04-15T00:36:44.954Z,14.93
2023-04-15T00:41:48.200Z,14.43
2023-04-15T00:46:54.333Z,13.03
2023-04-15T00:51:57.529Z,15.47
2023-04-15T00:57:00.742Z,14.33
2023-04-15T01:02:03.361Z,15.53
2023-04-15T01:07:05.959Z,15.80
2023-04-15T01:12:12.039Z,16.77
2023-04-15T01:17:15.274Z,18.93
2023-04-15T01:22:17.747Z,15.17
2023-04-15T01:27:20.692Z,18.80
2023-04-15T01:32:23.662Z,16.97
2023-04-15T01:37:28.220Z,17.90
2023-04-15T01:42:32.658Z,17.93
2023-04-15T01:47:35.295Z,20.53
2023-04-15T01:52:38.254Z,16.63
2023-04-15T01:57:41.141Z,17.97
2023-04-15T02:02:43.875Z,20.17
2023-04-15T02:07:46.459Z,19.17
2023-04-15T02:12:49.147Z,19.90
2023-04-15T02:17:52.845Z,17.50
2023-04-15T02:22:55.310Z,21.83
2023-04-15T02:27:58.292Z,16.77
2023-04-15T02:33:01.875Z,20.13
2023-04-15T02:38:04.315Z,21.17
2023-04-15T02:43:07.381Z,20.90
2023-04-15T02:48:11.130Z,24.17
2023-04-15T02:53:14.763Z,24.30
2023-04-15T02:58:17.279Z,19.87
2023-04-15T03:03:19.833Z,21.03
2023-04-15T03:08:22.646Z,20.63
2023-04-15T03:13:25.362Z,23.23
2023-04-15T03:18:29.387Z,21.07
2023-04-15T03:23:36.297Z,27.40
2023-04-15T03:28:39.448Z,55.90
2023-04-15T03:33:41.944Z,26.20
2023-04-15T03:38:45.054Z,37.13
2023-04-15T03:43:47.509Z,25.87
2023-04-15T03:48:52.717Z,22.43
2023-04-15T03:53:55.060Z,21.83
2023-04-15T03:58:57.333Z,26.03
2023-04-15T04:03:59.761Z,25.87
2023-04-15T04:09:02.899Z,24.70
2023-04-15T04:14:05.686Z,24.93
2023-04-15T04:19:07.989Z,26.33
2023-04-15T04:24:10.342Z,24.63
2023-04-15T04:29:12.704Z,24.03
2023-04-15T04:34:16.175Z,24.33
2023-04-15T04:39:18.684Z,28.90
2023-04-15T04:44:20.990Z,39.57
2023-04-15T04:49:23.383Z,26.87
2023-04-15T04:54:26.323Z,27.33
2023-04-15T04:59:28.711Z,24.03
2023-04-15T05:04:32.079Z,27.30
2023-04-15T05:09:36.188Z,28.67
2023-04-15T05:14:39.932Z,27.27
2023-04-15T05:19:42.296Z,27.57
2023-04-15T05:24:44.666Z,31.60
2023-04-15T05:29:46.965Z,29.80
2023-04-15T05:34:49.309Z,28.60
2023-04-15T05:39:52.120Z,32.60
2023-04-15T05:44:54.562Z,37.03
2023-04-15T05:49:58.974Z,40.60
2023-04-15T05:55:01.494Z,36.00
2023-04-15T06:00:05.329Z,40.47
2023-04-15T06:05:11.995Z,29.73
2023-04-15T06:10:14.429Z,30.93
2023-04-15T06:15:17.207Z,29.77
2023-04-15T06:20:19.539Z,34.93
2023-04-15T06:25:22.180Z,38.83
2023-04-15T06:30:24.595Z,36.83
2023-04-15T06:35:27.540Z,30.93
2023-04-15T06:40:29.983Z,33.83
2023-04-15T06:45:32.571Z,41.33
2023-04-15T06:50:35.779Z,40.87
2023-04-15T06:55:38.235Z,33.17
2023-04-15T07:00:40.873Z,32.70
2023-04-15T07:05:43.549Z,39.40
2023-04-15T07:10:47.246Z,39.40
2023-04-15T07:15:49.557Z,37.13
2023-04-15T07:20:52.216Z,30.00
2023-04-15T07:25:54.559Z,33.70
2023-04-15T07:30:59.922Z,31.77
2023-04-15T07:36:02.726Z,34.63
2023-04-15T07:41:05.112Z,30.37
2023-04-15T07:46:07.422Z,37.40
2023-04-15T07:51:10.947Z,32.50
2023-04-15T07:56:13.442Z,29.20
2023-04-15T08:01:16.099Z,30.27
2023-04-15T08:06:18.654Z,27.73
2023-04-15T08:11:21.405Z,28.93
2023-04-15T08:16:25.886Z,29.13
2023-04-15T08:21:30.812Z,29.20
2023-04-15T08:26:33.250Z,25.47
2023-04-15T08:31:35.634Z,32.50
2023-04-15T08:36:38.339Z,43.03
2023-04-15T08:42:01.932Z,34.07
2023-04-15T08:47:08.699Z,32.53
2023-04-15T08:52:12.210Z,26.07
2023-04-15T08:57:15.577Z,29.70
2023-04-15T09:02:18.205Z,20.03
2023-04-15T09:07:20.577Z,16.47
2023-04-15T09:12:22.953Z,14.20
2023-04-15T09:17:26.714Z,14.73
2023-04-15T09:22:33.079Z,12.97
2023-04-15T09:27:37.551Z,12.00
2023-04-15T09:32:52.527Z,26.77
2023-04-15T09:38:09.923Z,19.30
2023-04-15T09:43:16.914Z,16.60
2023-04-15T09:48:26.926Z,8.53
2023-04-15T09:53:30.549Z,22.57
2023-04-15T09:58:35.764Z,21.83
2023-04-15T10:03:42.387Z,26.83
2023-04-15T10:08:46.161Z,22.70
2023-04-15T10:13:50.627Z,40.50
2023-04-15T10:18:56.605Z,17.90
2023-04-15T10:24:02.213Z,12.10
2023-04-15T10:29:05.495Z,8.67
2023-04-15T10:34:08.904Z,12.13
2023-04-15T10:39:33.269Z,24.10
2023-04-15T10:44:41.955Z,20.40
2023-04-15T10:49:46.392Z,12.70
2023-04-15T10:54:48.980Z,15.57
2023-04-15T11:00:12.187Z,25.87
2023-04-15T11:05:16.776Z,13.70
2023-04-15T11:10:31.331Z,11.70
2023-04-15T11:15:34.627Z,12.20
2023-04-15T11:20:42.073Z,13.37
2023-04-15T11:25:45.299Z,7.70
2023-04-15T11:30:48.319Z,9.00
2023-04-15T11:35:52.888Z,13.53
2023-04-15T11:40:55.590Z,10.63
2023-04-15T11:46:02.704Z,8.27
2023-04-15T11:51:07.248Z,7.57
2023-04-15T11:56:21.122Z,14.50
2023-04-15T12:01:35.119Z,22.33
2023-04-15T12:06:39.104Z,14.83
2023-04-15T12:11:50.251Z,5.40
2023-04-15T12:16:55.209Z,4.27
2023-04-15T12:22:03.418Z,7.13
2023-04-15T12:27:07.824Z,8.33
2023-04-15T12:32:14.374Z,6.77
2023-04-15T12:37:16.996Z,20.50
2023-04-15T12:42:19.473Z,5.90
2023-04-15T12:47:22.404Z,7.47
2023-04-15T12:52:25.178Z,10.93
2023-04-15T12:57:27.696Z,9.87
2023-04-15T13:02:30.203Z,5.20
2023-04-15T13:07:32.624Z,6.73
2023-04-15T13:12:37.621Z,5.37
2023-04-15T13:17:39.986Z,8.87
2023-04-15T13:22:42.619Z,6.90
2023-04-15T13:27:44.945Z,9.47
2023-04-15T13:32:48.775Z,13.67
2023-04-15T13:37:54.300Z,24.97
2023-04-15T13:42:57.786Z,23.43
2023-04-15T13:48:00.274Z,20.87
2023-04-15T13:53:02.804Z,14.60
2023-04-15T13:58:05.299Z,22.07
2023-04-15T14:03:07.789Z,104.40
2023-04-15T14:08:10.248Z,20.90
2023-04-15T14:13:12.639Z,115.20
2023-04-15T14:18:15.353Z,275.40
2023-04-15T14:23:17.705Z,17.13
2023-04-15T14:28:20.125Z,21.83
2023-04-15T14:33:26.052Z,17.80
2023-04-15T14:38:28.521Z,25.70
2023-04-15T14:43:30.821Z,18.90
2023-04-15T14:48:33.247Z,25.50
2023-04-15T14:53:35.766Z,21.37
2023-04-15T14:58:38.209Z,20.67
2023-04-15T15:03:41.006Z,26.03
2023-04-15T15:08:43.451Z,10.83
2023-04-15T15:13:45.803Z,16.03
2023-04-15T15:18:48.165Z,26.37
2023-04-15T15:23:50.661Z,18.83
2023-04-15T15:28:52.990Z,23.17
2023-04-15T15:33:55.409Z,29.07
2023-04-15T15:38:59.746Z,20.00
2023-04-15T15:44:02.394Z,38.47
2023-04-15T15:49:05.064Z,30.10
2023-04-15T15:54:07.668Z,15.13
2023-04-15T15:59:09.983Z,19.03
2023-04-15T16:04:12.591Z,23.30
2023-04-15T16:09:15.025Z,22.80
2023-04-15T16:14:17.467Z,21.00
2023-04-15T16:19:21.412Z,28.57
2023-04-15T16:24:23.960Z,29.80
2023-04-15T16:29:26.568Z,36.37
2023-04-15T16:34:28.960Z,28.57
2023-04-15T16:39:31.516Z,45.87
2023-04-15T16:44:34.023Z,31.67
2023-04-15T16:49:36.368Z,46.60
2023-04-15T16:54:41.365Z,50.50
2023-04-15T16:59:43.823Z,51.70
2023-04-15T17:04:46.316Z,50.43
2023-04-15T17:09:48.616Z,54.53
2023-04-15T17:14:50.891Z,49.17
2023-04-15T17:19:53.267Z,53.67
2023-04-15T17:24:55.657Z,52.47
2023-04-15T17:29:58.163Z,46.37
2023-04-15T17:35:02.626Z,40.50
2023-04-15T17:40:08.020Z,86.57
2023-04-15T17:45:11.463Z,152.50
2023-04-15T17:50:13.809Z,159.50
2023-04-15T17:55:16.168Z,160.77
2023-04-15T18:00:18.678Z,81.67
2023-04-15T18:05:21.596Z,55.67
2023-04-15T18:10:24.136Z,74.60
2023-04-15T18:15:26.479Z,88.57
2023-04-15T18:20:29.345Z,58.83
2023-04-15T18:25:32.051Z,112.00
2023-04-15T18:30:34.340Z,155.57
2023-04-15T18:35:38.712Z,76.03
2023-04-15T18:40:41.149Z,71.83
2023-04-15T18:45:43.738Z,83.43
2023-04-15T18:50:46.138Z,131.87
2023-04-15T18:55:48.481Z,82.20
2023-04-15T19:00:50.830Z,110.47
2023-04-15T19:05:53.388Z,121.20
2023-04-15T19:10:55.805Z,123.30
2023-04-15T19:15:58.100Z,153.83
2023-04-15T19:21:00.653Z,136.87
2023-04-15T19:26:02.976Z,104.37
2023-04-15T19:31:05.417Z,82.20
2023-04-15T19:36:08.091Z,87.40
2023-04-15T19:41:11.057Z,100.57
2023-04-15T19:46:13.739Z,108.80
2023-04-15T19:51:16.609Z,105.93
2023-04-15T19:56:19.074Z,88.17
2023-04-15T20:01:22.372Z,84.73
2023-04-15T20:06:24.843Z,88.53
2023-04-15T20:12:05.127Z,106.83
2023-04-15T20:16:52.467Z,102.93
2023-04-15T20:21:54.873Z,108.53
2023-04-15T20:26:57.643Z,181.13
2023-04-15T20:32:00.071Z,172.13
2023-04-15T20:37:02.655Z,234.47
2023-04-15T20:42:10.831Z,236.30
2023-04-15T20:47:13.291Z,171.83
2023-04-15T20:52:15.760Z,205.57
2023-04-15T20:57:18.191Z,195.67
2023-04-15T21:02:22.054Z,196.33
2023-04-15T21:07:24.538Z,182.50
2023-04-15T21:12:26.855Z,176.23
2023-04-15T21:17:29.245Z,200.00
2023-04-15T21:22:31.668Z,230.63
2023-04-15T21:27:33.977Z,243.73
2023-04-15T21:32:36.397Z,249.17
2023-04-15T21:37:38.884Z,243.40
2023-04-15T21:42:41.743Z,216.17
2023-04-15T21:47:57.316Z,205.47
2023-04-15T21:53:08.353Z,184.50
2023-04-15T21:58:10.753Z,147.60
2023-04-15T22:03:13.199Z,181.03
2023-04-15T22:08:15.919Z,160.00
2023-04-15T22:13:18.377Z,194.77
2023-04-15T22:18:20.736Z,205.23
2023-04-15T22:23:23.092Z,138.07
2023-04-15T22:28:25.490Z,167.37
2023-04-15T22:33:27.953Z,146.67
2023-04-15T22:38:30.390Z,142.60
2023-04-15T22:43:32.732Z,126.93
2023-04-15T22:48:35.258Z,107.83
2023-04-15T22:53:37.597Z,110.40
2023-04-15T22:58:39.914Z,95.10
2023-04-15T23:03:57.554Z,109.57
2023-04-15T23:09:04.627Z,125.97
2023-04-15T23:14:07.135Z,114.17
2023-04-15T23:19:09.723Z,100.70
2023-04-15T23:24:12.706Z,97.87
2023-04-15T23:29:15.102Z,91.40
2023-04-15T23:34:17.511Z,86.53
2023-04-15T23:39:19.899Z,79.23
2023-04-15T23:44:22.352Z,68.50
2023-04-15T23:49:24.810Z,62.57
2023-04-15T23:54:27.811Z,68.80
2023-04-15T23:59:30.302Z,62.03
